sensor_id;sensor_type;location;lat;lon;timestamp;noise_LAeq;noise_LA_min;noise_LA_max;noise_LA01;noise_LA95
68945;Laerm;55984;48.790;8.990;2023-05-07T03:54:42;42.21;37.69;53.33;;
68945;Laerm;55984;48.790;8.990;2023-05-07T03:57:09;42.00;38.57;49.68;;
68945;Laerm;55984;48.790;8.990;2023-05-07T04:03:01;41.46;36.11;57.19;;
68945;Laerm;55984;48.790;8.990;2023-05-07T04:05:29;41.93;36.88;55.38;;
68945;Laerm;55984;48.790;8.990;2023-05-07T04:07:59;39.95;36.55;45.54;;
68945;Laerm;55984;48.790;8.990;2023-05-07T04:10:31;46.92;35.92;62.39;;
68945;Laerm;55984;48.790;8.990;2023-05-07T04:13:02;48.66;36.55;63.94;;
68945;Laerm;55984;48.790;8.990;2023-05-07T04:15:29;42.04;37.03;54.93;;
68945;Laerm;55984;48.790;8.990;2023-05-07T04:17:56;42.73;36.44;56.36;;
68945;Laerm;55984;48.790;8.990;2023-05-07T04:20:23;40.96;36.61;56.68;;
68945;Laerm;55984;48.790;8.990;2023-05-07T04:22:53;45.16;35.65;63.10;;
68945;Laerm;55984;48.790;8.990;2023-05-07T04:25:22;40.93;37.30;56.10;;
68945;Laerm;55984;48.790;8.990;2023-05-07T04:27:51;40.45;37.30;43.79;;
68945;Laerm;55984;48.790;8.990;2023-05-07T04:30:22;40.57;37.37;44.66;;
68945;Laerm;55984;48.790;8.990;2023-05-07T04:32:50;41.00;37.50;45.03;;
68945;Laerm;55984;48.790;8.990;2023-05-07T04:35:17;43.44;37.76;60.51;;
68945;Laerm;55984;48.790;8.990;2023-05-07T04:37:50;41.09;37.51;53.02;;
68945;Laerm;55984;48.790;8.990;2023-05-07T04:40:17;40.45;37.16;51.68;;
68945;Laerm;55984;48.790;8.990;2023-05-07T04:42:43;40.31;37.44;45.60;;
68945;Laerm;55984;48.790;8.990;2023-05-07T04:45:15;43.02;37.85;58.67;;
68945;Laerm;55984;48.790;8.990;2023-05-07T04:47:46;42.24;37.91;53.64;;
68945;Laerm;55984;48.790;8.990;2023-05-07T04:50:28;40.35;36.48;48.03;;
68945;Laerm;55984;48.790;8.990;2023-05-07T04:52:58;41.86;37.90;47.34;;
68945;Laerm;55984;48.790;8.990;2023-05-07T04:55:35;39.85;36.20;45.29;;
68945;Laerm;55984;48.790;8.990;2023-05-07T04:58:24;41.07;36.91;53.32;;
68945;Laerm;55984;48.790;8.990;2023-05-07T05:01:27;40.99;36.30;56.38;;
68945;Laerm;55984;48.790;8.990;2023-05-07T05:04:23;38.81;36.48;46.16;;
68945;Laerm;55984;48.790;8.990;2023-05-07T05:06:58;40.10;37.10;45.28;;
68945;Laerm;55984;48.790;8.990;2023-05-07T05:09:25;40.74;36.66;49.75;;
68945;Laerm;55984;48.790;8.990;2023-05-07T05:11:59;40.78;37.19;46.35;;
68945;Laerm;55984;48.790;8.990;2023-05-07T05:14:35;40.51;37.99;46.19;;
68945;Laerm;55984;48.790;8.990;2023-05-07T05:17:16;44.05;38.46;61.70;;
68945;Laerm;55984;48.790;8.990;2023-05-07T05:19:45;42.41;37.96;54.72;;
68945;Laerm;55984;48.790;8.990;2023-05-07T05:22:30;44.80;38.24;53.85;;
68945;Laerm;55984;48.790;8.990;2023-05-07T05:27:43;41.09;38.41;46.34;;
68945;Laerm;55984;48.790;8.990;2023-05-07T05:30:16;40.96;37.74;47.96;;
68945;Laerm;55984;48.790;8.990;2023-05-07T05:32:43;41.26;37.83;52.48;;
68945;Laerm;55984;48.790;8.990;2023-05-07T05:35:10;40.68;37.77;48.90;;
68945;Laerm;55984;48.790;8.990;2023-05-07T05:37:35;52.67;38.39;70.90;;
68945;Laerm;55984;48.790;8.990;2023-05-07T05:40:02;42.99;38.25;55.76;;
68945;Laerm;55984;48.790;8.990;2023-05-07T05:42:28;44.61;39.38;59.62;;
68945;Laerm;55984;48.790;8.990;2023-05-07T05:44:55;42.56;38.94;53.34;;
68945;Laerm;55984;48.790;8.990;2023-05-07T05:47:22;44.92;38.32;66.54;;
68945;Laerm;55984;48.790;8.990;2023-05-07T05:49:48;46.29;39.40;64.47;;
68945;Laerm;55984;48.790;8.990;2023-05-07T05:52:14;42.08;38.95;54.17;;
68945;Laerm;55984;48.790;8.990;2023-05-07T05:54:41;42.14;39.46;56.13;;
68945;Laerm;55984;48.790;8.990;2023-05-07T05:57:07;46.40;38.53;63.54;;
68945;Laerm;55984;48.790;8.990;2023-05-07T05:59:34;44.80;38.38;59.57;;
68945;Laerm;55984;48.790;8.990;2023-05-07T06:02:00;43.52;38.73;57.65;;
68945;Laerm;55984;48.790;8.990;2023-05-07T06:04:26;41.78;38.59;50.60;;
68945;Laerm;55984;48.790;8.990;2023-05-07T06:06:52;43.86;38.98;57.02;;
68945;Laerm;55984;48.790;8.990;2023-05-07T06:09:17;43.26;39.82;56.78;;
68945;Laerm;55984;48.790;8.990;2023-05-07T06:11:43;47.35;38.39;64.34;;
68945;Laerm;55984;48.790;8.990;2023-05-07T06:14:10;48.50;38.90;61.79;;
68945;Laerm;55984;48.790;8.990;2023-05-07T06:16:36;42.20;39.33;48.14;;
68945;Laerm;55984;48.790;8.990;2023-05-07T06:19:03;42.64;39.44;52.64;;
68945;Laerm;55984;48.790;8.990;2023-05-07T06:21:29;41.82;38.77;49.76;;
68945;Laerm;55984;48.790;8.990;2023-05-07T06:23:55;41.62;37.94;50.98;;
68945;Laerm;55984;48.790;8.990;2023-05-07T06:26:22;42.27;38.66;52.80;;
68945;Laerm;55984;48.790;8.990;2023-05-07T06:28:47;40.96;38.26;49.00;;
68945;Laerm;55984;48.790;8.990;2023-05-07T06:31:18;41.14;38.49;51.42;;
68945;Laerm;55984;48.790;8.990;2023-05-07T06:33:46;47.67;39.27;65.93;;
68945;Laerm;55984;48.790;8.990;2023-05-07T06:36:12;43.66;39.90;53.16;;
68945;Laerm;55984;48.790;8.990;2023-05-07T06:38:38;42.84;39.75;54.50;;
68945;Laerm;55984;48.790;8.990;2023-05-07T06:41:05;42.06;38.85;48.03;;
68945;Laerm;55984;48.790;8.990;2023-05-07T06:43:32;42.59;38.72;51.68;;
68945;Laerm;55984;48.790;8.990;2023-05-07T06:45:58;42.31;39.12;53.26;;
68945;Laerm;55984;48.790;8.990;2023-05-07T06:48:23;42.24;38.53;55.02;;
68945;Laerm;55984;48.790;8.990;2023-05-07T06:50:49;43.59;38.62;66.26;;
68945;Laerm;55984;48.790;8.990;2023-05-07T06:53:15;42.22;38.28;57.52;;
68945;Laerm;55984;48.790;8.990;2023-05-07T06:55:41;46.76;38.49;64.94;;
68945;Laerm;55984;48.790;8.990;2023-05-07T06:58:07;43.71;37.43;66.60;;
68945;Laerm;55984;48.790;8.990;2023-05-07T07:00:33;43.18;37.47;62.84;;
68945;Laerm;55984;48.790;8.990;2023-05-07T07:03:00;41.60;38.14;56.20;;
68945;Laerm;55984;48.790;8.990;2023-05-07T07:05:26;43.41;37.41;64.68;;
68945;Laerm;55984;48.790;8.990;2023-05-07T07:07:51;50.51;36.39;70.33;;
68945;Laerm;55984;48.790;8.990;2023-05-07T07:10:21;42.87;34.88;68.68;;
68945;Laerm;55984;48.790;8.990;2023-05-07T07:12:48;42.54;35.22;56.92;;
68945;Laerm;55984;48.790;8.990;2023-05-07T07:15:14;42.88;35.66;56.61;;
68945;Laerm;55984;48.790;8.990;2023-05-07T07:17:40;48.52;36.01;68.42;;
68945;Laerm;55984;48.790;8.990;2023-05-07T07:20:07;50.77;34.74;77.12;;
68945;Laerm;55984;48.790;8.990;2023-05-07T07:22:33;41.89;34.84;58.92;;
68945;Laerm;55984;48.790;8.990;2023-05-07T07:24:59;45.49;36.10;64.12;;
68945;Laerm;55984;48.790;8.990;2023-05-07T07:27:25;49.17;35.80;64.77;;
68945;Laerm;55984;48.790;8.990;2023-05-07T07:29:51;50.96;35.88;66.81;;
68945;Laerm;55984;48.790;8.990;2023-05-07T07:32:16;44.35;35.14;60.29;;
68945;Laerm;55984;48.790;8.990;2023-05-07T07:34:42;47.81;35.03;64.41;;
68945;Laerm;55984;48.790;8.990;2023-05-07T07:37:08;44.29;35.21;67.77;;
68945;Laerm;55984;48.790;8.990;2023-05-07T07:39:35;45.69;35.77;60.31;;
68945;Laerm;55984;48.790;8.990;2023-05-07T07:42:02;44.29;34.80;62.84;;
68945;Laerm;55984;48.790;8.990;2023-05-07T07:44:29;44.49;35.03;64.31;;
68945;Laerm;55984;48.790;8.990;2023-05-07T07:46:55;41.33;34.93;55.04;;
68945;Laerm;55984;48.790;8.990;2023-05-07T07:49:21;43.84;34.89;58.79;;
68945;Laerm;55984;48.790;8.990;2023-05-07T07:51:47;43.68;35.40;61.12;;
68945;Laerm;55984;48.790;8.990;2023-05-07T07:54:13;49.13;34.45;74.37;;
68945;Laerm;55984;48.790;8.990;2023-05-07T07:56:41;46.09;35.64;62.82;;
68945;Laerm;55984;48.790;8.990;2023-05-07T07:59:07;50.05;36.08;66.17;;
68945;Laerm;55984;48.790;8.990;2023-05-07T08:01:33;49.22;34.47;67.06;;
68945;Laerm;55984;48.790;8.990;2023-05-07T08:04:00;42.24;34.28;55.54;;
68945;Laerm;55984;48.790;8.990;2023-05-07T08:06:28;41.92;34.70;59.66;;
68945;Laerm;55984;48.790;8.990;2023-05-07T08:08:55;47.68;34.98;64.06;;
68945;Laerm;55984;48.790;8.990;2023-05-07T08:11:21;49.96;35.36;70.01;;
68945;Laerm;55984;48.790;8.990;2023-05-07T08:13:47;51.88;35.33;76.18;;
68945;Laerm;55984;48.790;8.990;2023-05-07T08:16:13;51.81;35.28;76.78;;
68945;Laerm;55984;48.790;8.990;2023-05-07T08:18:39;50.80;35.52;73.38;;
68945;Laerm;55984;48.790;8.990;2023-05-07T08:21:05;48.70;34.98;68.69;;
68945;Laerm;55984;48.790;8.990;2023-05-07T08:23:33;52.38;35.97;77.21;;
68945;Laerm;55984;48.790;8.990;2023-05-07T08:26:01;52.27;34.71;80.56;;
68945;Laerm;55984;48.790;8.990;2023-05-07T08:28:27;46.66;35.58;67.61;;
68945;Laerm;55984;48.790;8.990;2023-05-07T08:30:53;42.82;35.44;62.36;;
68945;Laerm;55984;48.790;8.990;2023-05-07T08:33:19;40.85;34.38;62.25;;
68945;Laerm;55984;48.790;8.990;2023-05-07T08:35:45;45.78;34.59;62.11;;
68945;Laerm;55984;48.790;8.990;2023-05-07T08:38:12;42.40;34.93;62.90;;
68945;Laerm;55984;48.790;8.990;2023-05-07T08:40:39;41.03;35.17;57.50;;
68945;Laerm;55984;48.790;8.990;2023-05-07T08:43:13;43.21;34.81;60.06;;
68945;Laerm;55984;48.790;8.990;2023-05-07T08:45:40;50.02;35.66;67.91;;
68945;Laerm;55984;48.790;8.990;2023-05-07T08:48:16;47.35;36.16;68.54;;
68945;Laerm;55984;48.790;8.990;2023-05-07T08:50:42;47.33;36.37;72.43;;
68945;Laerm;55984;48.790;8.990;2023-05-07T08:53:08;47.87;36.30;66.44;;
68945;Laerm;55984;48.790;8.990;2023-05-07T08:55:34;47.93;37.13;66.37;;
68945;Laerm;55984;48.790;8.990;2023-05-07T08:58:00;51.03;35.06;73.56;;
68945;Laerm;55984;48.790;8.990;2023-05-07T09:00:26;55.06;34.33;78.02;;
68945;Laerm;55984;48.790;8.990;2023-05-07T09:02:53;41.85;34.30;61.77;;
68945;Laerm;55984;48.790;8.990;2023-05-07T09:05:19;42.93;34.22;66.84;;
68945;Laerm;55984;48.790;8.990;2023-05-07T09:07:45;38.28;34.40;53.01;;
68945;Laerm;55984;48.790;8.990;2023-05-07T09:10:12;42.43;35.99;64.97;;
68945;Laerm;55984;48.790;8.990;2023-05-07T09:12:38;49.18;34.02;76.31;;
68945;Laerm;55984;48.790;8.990;2023-05-07T09:15:05;39.37;33.53;52.25;;
68945;Laerm;55984;48.790;8.990;2023-05-07T09:17:31;41.29;33.87;59.80;;
68945;Laerm;55984;48.790;8.990;2023-05-07T09:20:02;39.12;34.75;50.18;;
68945;Laerm;55984;48.790;8.990;2023-05-07T09:22:32;42.38;34.63;64.35;;
68945;Laerm;55984;48.790;8.990;2023-05-07T09:24:58;44.63;34.58;68.49;;
68945;Laerm;55984;48.790;8.990;2023-05-07T09:27:25;42.85;34.25;59.74;;
68945;Laerm;55984;48.790;8.990;2023-05-07T09:29:54;42.54;34.46;57.34;;
68945;Laerm;55984;48.790;8.990;2023-05-07T09:32:24;41.73;34.58;60.76;;
68945;Laerm;55984;48.790;8.990;2023-05-07T09:34:52;38.98;34.37;56.45;;
68945;Laerm;55984;48.790;8.990;2023-05-07T09:37:18;48.53;35.56;66.10;;
68945;Laerm;55984;48.790;8.990;2023-05-07T09:39:49;38.71;35.51;58.95;;
68945;Laerm;55984;48.790;8.990;2023-05-07T09:42:23;40.81;35.60;54.84;;
68945;Laerm;55984;48.790;8.990;2023-05-07T09:44:50;42.84;36.81;63.28;;
68945;Laerm;55984;48.790;8.990;2023-05-07T09:47:18;40.11;36.08;50.82;;
68945;Laerm;55984;48.790;8.990;2023-05-07T09:49:47;39.78;36.73;50.48;;
68945;Laerm;55984;48.790;8.990;2023-05-07T09:52:14;51.44;36.57;70.24;;
68945;Laerm;55984;48.790;8.990;2023-05-07T09:54:40;54.98;37.01;66.70;;
68945;Laerm;55984;48.790;8.990;2023-05-07T09:57:21;52.01;34.74;69.34;;
68945;Laerm;55984;48.790;8.990;2023-05-07T09:59:49;41.64;35.92;55.40;;
68945;Laerm;55984;48.790;8.990;2023-05-07T10:02:17;40.80;34.76;58.78;;
68945;Laerm;55984;48.790;8.990;2023-05-07T10:04:46;50.63;35.51;63.16;;
68945;Laerm;55984;48.790;8.990;2023-05-07T10:07:14;39.89;35.45;56.27;;
68945;Laerm;55984;48.790;8.990;2023-05-07T10:09:40;38.39;34.85;51.07;;
68945;Laerm;55984;48.790;8.990;2023-05-07T10:12:09;45.07;34.93;68.36;;
68945;Laerm;55984;48.790;8.990;2023-05-07T10:14:35;41.84;34.63;58.11;;
68945;Laerm;55984;48.790;8.990;2023-05-07T10:17:02;44.06;36.02;57.73;;
68945;Laerm;55984;48.790;8.990;2023-05-07T10:22:55;42.00;35.27;57.36;;
68945;Laerm;55984;48.790;8.990;2023-05-07T10:25:30;43.88;35.45;58.80;;
68945;Laerm;55984;48.790;8.990;2023-05-07T10:28:00;44.67;34.95;60.91;;
68945;Laerm;55984;48.790;8.990;2023-05-07T10:30:45;46.01;35.16;66.00;;
68945;Laerm;55984;48.790;8.990;2023-05-07T10:33:19;44.17;35.72;63.75;;
68945;Laerm;55984;48.790;8.990;2023-05-07T10:35:48;43.17;35.13;62.45;;
68945;Laerm;55984;48.790;8.990;2023-05-07T10:38:14;45.95;37.17;64.50;;
68945;Laerm;55984;48.790;8.990;2023-05-07T10:40:40;42.28;35.55;58.25;;
68945;Laerm;55984;48.790;8.990;2023-05-07T10:43:06;60.27;35.69;74.75;;
68945;Laerm;55984;48.790;8.990;2023-05-07T10:45:32;46.53;34.12;67.38;;
68945;Laerm;55984;48.790;8.990;2023-05-07T10:48:15;42.93;34.30;60.16;;
68945;Laerm;55984;48.790;8.990;2023-05-07T10:50:42;45.10;34.15;59.62;;
68945;Laerm;55984;48.790;8.990;2023-05-07T10:55:51;46.49;33.63;63.27;;
68945;Laerm;55984;48.790;8.990;2023-05-07T10:58:25;47.19;33.88;66.23;;
68945;Laerm;55984;48.790;8.990;2023-05-07T11:00:59;41.42;34.18;58.27;;
68945;Laerm;55984;48.790;8.990;2023-05-07T11:03:25;42.35;34.19;61.20;;
68945;Laerm;55984;48.790;8.990;2023-05-07T11:06:14;41.30;34.35;60.46;;
68945;Laerm;55984;48.790;8.990;2023-05-07T11:11:18;47.43;33.98;67.19;;
68945;Laerm;55984;48.790;8.990;2023-05-07T11:13:48;44.96;34.38;60.23;;
68945;Laerm;55984;48.790;8.990;2023-05-07T11:16:22;49.67;33.81;68.48;;
68945;Laerm;55984;48.790;8.990;2023-05-07T11:18:50;42.53;33.40;59.96;;
68945;Laerm;55984;48.790;8.990;2023-05-07T11:21:37;44.08;33.69;60.63;;
68945;Laerm;55984;48.790;8.990;2023-05-07T11:24:04;43.91;34.56;55.87;;
68945;Laerm;55984;48.790;8.990;2023-05-07T11:26:42;45.15;34.90;64.13;;
68945;Laerm;55984;48.790;8.990;2023-05-07T11:29:19;49.16;34.86;65.43;;
68945;Laerm;55984;48.790;8.990;2023-05-07T11:31:52;50.66;35.49;68.59;;
68945;Laerm;55984;48.790;8.990;2023-05-07T11:34:23;53.22;34.41;73.18;;
68945;Laerm;55984;48.790;8.990;2023-05-07T11:36:49;51.23;35.36;67.24;;
68945;Laerm;55984;48.790;8.990;2023-05-07T11:41:54;54.33;35.19;73.05;;
68945;Laerm;55984;48.790;8.990;2023-05-07T11:44:20;55.73;34.28;74.67;;
68945;Laerm;55984;48.790;8.990;2023-05-07T11:46:46;54.96;35.57;71.99;;
68945;Laerm;55984;48.790;8.990;2023-05-07T11:49:12;55.84;36.12;71.63;;
68945;Laerm;55984;48.790;8.990;2023-05-07T11:51:38;57.80;41.57;69.45;;
68945;Laerm;55984;48.790;8.990;2023-05-07T11:54:06;57.29;47.76;70.33;;
68945;Laerm;55984;48.790;8.990;2023-05-07T11:56:37;56.59;47.43;68.91;;
68945;Laerm;55984;48.790;8.990;2023-05-07T11:59:03;55.61;44.59;73.34;;
68945;Laerm;55984;48.790;8.990;2023-05-07T12:01:29;54.68;44.96;66.01;;
68945;Laerm;55984;48.790;8.990;2023-05-07T12:03:54;55.33;45.01;77.62;;
68945;Laerm;55984;48.790;8.990;2023-05-07T12:06:20;53.48;43.87;63.33;;
68945;Laerm;55984;48.790;8.990;2023-05-07T12:08:47;52.58;42.34;65.94;;
68945;Laerm;55984;48.790;8.990;2023-05-07T12:11:23;53.97;42.88;67.67;;
68945;Laerm;55984;48.790;8.990;2023-05-07T12:13:50;52.15;41.77;65.12;;
68945;Laerm;55984;48.790;8.990;2023-05-07T12:16:17;52.22;41.90;69.11;;
68945;Laerm;55984;48.790;8.990;2023-05-07T12:18:43;54.34;42.36;73.68;;
68945;Laerm;55984;48.790;8.990;2023-05-07T12:21:10;49.01;41.68;70.69;;
68945;Laerm;55984;48.790;8.990;2023-05-07T12:23:36;56.16;42.22;76.31;;
68945;Laerm;55984;48.790;8.990;2023-05-07T12:26:03;62.29;45.01;79.82;;
68945;Laerm;55984;48.790;8.990;2023-05-07T12:28:29;51.96;42.88;68.67;;
68945;Laerm;55984;48.790;8.990;2023-05-07T12:30:56;45.66;41.90;59.40;;
68945;Laerm;55984;48.790;8.990;2023-05-07T12:33:26;48.63;40.98;62.14;;
68945;Laerm;55984;48.790;8.990;2023-05-07T12:35:54;50.62;41.81;65.55;;
68945;Laerm;55984;48.790;8.990;2023-05-07T12:41:30;45.83;42.53;60.37;;
68945;Laerm;55984;48.790;8.990;2023-05-07T12:43:58;49.78;43.88;67.56;;
68945;Laerm;55984;48.790;8.990;2023-05-07T12:46:24;47.48;44.64;57.51;;
68945;Laerm;55984;48.790;8.990;2023-05-07T12:48:50;47.91;44.25;59.53;;
68945;Laerm;55984;48.790;8.990;2023-05-07T12:51:17;50.46;45.06;64.08;;
68945;Laerm;55984;48.790;8.990;2023-05-07T12:53:45;51.74;47.35;71.58;;
68945;Laerm;55984;48.790;8.990;2023-05-07T12:56:12;53.40;46.84;66.06;;
68945;Laerm;55984;48.790;8.990;2023-05-07T12:59:09;57.19;49.80;72.54;;
68945;Laerm;55984;48.790;8.990;2023-05-07T13:01:35;56.18;49.94;70.02;;
68945;Laerm;55984;48.790;8.990;2023-05-07T13:04:11;52.49;47.15;65.28;;
68945;Laerm;55984;48.790;8.990;2023-05-07T13:06:37;54.14;46.12;70.07;;
68945;Laerm;55984;48.790;8.990;2023-05-07T13:09:06;53.87;46.19;74.62;;
68945;Laerm;55984;48.790;8.990;2023-05-07T13:11:32;47.90;45.74;57.14;;
68945;Laerm;55984;48.790;8.990;2023-05-07T13:13:58;49.52;46.60;59.80;;
68945;Laerm;55984;48.790;8.990;2023-05-07T13:16:24;48.54;45.93;57.97;;
68945;Laerm;55984;48.790;8.990;2023-05-07T13:18:50;48.14;45.95;56.99;;
68945;Laerm;55984;48.790;8.990;2023-05-07T13:21:16;48.62;46.11;51.50;;
68945;Laerm;55984;48.790;8.990;2023-05-07T13:23:45;48.80;46.40;55.19;;
68945;Laerm;55984;48.790;8.990;2023-05-07T13:26:11;48.12;45.61;54.58;;
68945;Laerm;55984;48.790;8.990;2023-05-07T13:28:40;48.31;45.68;58.28;;
68945;Laerm;55984;48.790;8.990;2023-05-07T13:31:06;46.36;44.61;51.84;;
68945;Laerm;55984;48.790;8.990;2023-05-07T13:33:34;49.37;41.74;68.19;;
68945;Laerm;55984;48.790;8.990;2023-05-07T13:36:01;48.96;45.07;63.00;;
68945;Laerm;55984;48.790;8.990;2023-05-07T13:38:29;49.40;46.64;57.50;;
68945;Laerm;55984;48.790;8.990;2023-05-07T13:40:55;52.65;45.35;68.47;;
68945;Laerm;55984;48.790;8.990;2023-05-07T13:43:43;54.14;45.67;78.01;;
68945;Laerm;55984;48.790;8.990;2023-05-07T13:46:09;47.96;45.32;54.20;;
68945;Laerm;55984;48.790;8.990;2023-05-07T13:48:36;48.10;45.31;58.85;;
68945;Laerm;55984;48.790;8.990;2023-05-07T13:51:04;47.07;44.86;54.87;;
68945;Laerm;55984;48.790;8.990;2023-05-07T13:53:30;50.70;45.81;65.70;;
68945;Laerm;55984;48.790;8.990;2023-05-07T13:55:56;48.28;46.03;52.71;;
68945;Laerm;55984;48.790;8.990;2023-05-07T13:58:22;49.08;45.01;62.69;;
68945;Laerm;55984;48.790;8.990;2023-05-07T14:00:48;52.28;45.04;66.93;;
68945;Laerm;55984;48.790;8.990;2023-05-07T14:03:14;49.13;44.74;61.32;;
68945;Laerm;55984;48.790;8.990;2023-05-07T14:05:40;49.66;44.42;61.81;;
68945;Laerm;55984;48.790;8.990;2023-05-07T14:08:05;49.46;45.21;59.87;;
68945;Laerm;55984;48.790;8.990;2023-05-07T14:10:32;48.35;44.09;63.68;;
68945;Laerm;55984;48.790;8.990;2023-05-07T14:12:59;48.57;45.10;65.26;;
68945;Laerm;55984;48.790;8.990;2023-05-07T14:15:25;48.54;45.36;58.06;;
68945;Laerm;55984;48.790;8.990;2023-05-07T14:17:51;48.52;45.76;62.87;;
68945;Laerm;55984;48.790;8.990;2023-05-07T14:20:17;48.45;45.49;62.71;;
68945;Laerm;55984;48.790;8.990;2023-05-07T14:22:43;48.01;45.49;55.61;;
68945;Laerm;55984;48.790;8.990;2023-05-07T14:25:09;49.64;44.96;67.52;;
68945;Laerm;55984;48.790;8.990;2023-05-07T14:27:38;47.67;44.56;60.17;;
68945;Laerm;55984;48.790;8.990;2023-05-07T14:30:05;47.89;44.68;59.76;;
68945;Laerm;55984;48.790;8.990;2023-05-07T14:32:32;47.10;44.79;56.07;;
68945;Laerm;55984;48.790;8.990;2023-05-07T14:34:58;50.40;44.34;66.13;;
68945;Laerm;55984;48.790;8.990;2023-05-07T14:37:24;48.53;45.83;59.18;;
68945;Laerm;55984;48.790;8.990;2023-05-07T14:39:50;47.84;45.67;58.93;;
68945;Laerm;55984;48.790;8.990;2023-05-07T14:42:16;47.58;44.80;69.06;;
68945;Laerm;55984;48.790;8.990;2023-05-07T14:44:42;47.59;45.04;56.31;;
68945;Laerm;55984;48.790;8.990;2023-05-07T14:47:09;48.18;44.49;64.39;;
68945;Laerm;55984;48.790;8.990;2023-05-07T14:49:36;53.92;46.56;68.79;;
68945;Laerm;55984;48.790;8.990;2023-05-07T14:52:02;51.45;45.39;67.88;;
68945;Laerm;55984;48.790;8.990;2023-05-07T14:54:28;49.16;44.95;63.08;;
68945;Laerm;55984;48.790;8.990;2023-05-07T14:56:54;49.14;45.05;59.65;;
68945;Laerm;55984;48.790;8.990;2023-05-07T14:59:20;50.61;46.06;72.48;;
68945;Laerm;55984;48.790;8.990;2023-05-07T15:01:47;49.74;44.98;64.27;;
68945;Laerm;55984;48.790;8.990;2023-05-07T15:04:13;48.87;42.88;67.55;;
68945;Laerm;55984;48.790;8.990;2023-05-07T15:06:39;46.15;41.70;58.16;;
68945;Laerm;55984;48.790;8.990;2023-05-07T15:09:05;45.21;40.19;59.58;;
68945;Laerm;55984;48.790;8.990;2023-05-07T15:11:31;44.50;39.33;55.82;;
68945;Laerm;55984;48.790;8.990;2023-05-07T15:13:57;41.83;39.68;47.20;;
68945;Laerm;55984;48.790;8.990;2023-05-07T15:16:22;44.04;39.84;58.63;;
68945;Laerm;55984;48.790;8.990;2023-05-07T15:18:48;46.55;41.37;60.87;;
68945;Laerm;55984;48.790;8.990;2023-05-07T15:21:14;48.40;42.58;65.76;;
68945;Laerm;55984;48.790;8.990;2023-05-07T15:23:40;50.26;42.38;74.36;;
68945;Laerm;55984;48.790;8.990;2023-05-07T15:26:06;48.16;42.71;71.53;;
68945;Laerm;55984;48.790;8.990;2023-05-07T15:28:33;46.36;41.81;56.90;;
68945;Laerm;55984;48.790;8.990;2023-05-07T15:30:59;54.72;41.39;66.60;;
68945;Laerm;55984;48.790;8.990;2023-05-07T15:33:25;47.54;40.84;58.53;;
68945;Laerm;55984;48.790;8.990;2023-05-07T15:35:51;48.80;42.65;60.71;;
68945;Laerm;55984;48.790;8.990;2023-05-07T15:38:17;49.27;43.86;61.94;;
68945;Laerm;55984;48.790;8.990;2023-05-07T15:40:45;49.37;46.32;54.81;;
68945;Laerm;55984;48.790;8.990;2023-05-07T15:43:15;49.89;44.75;62.84;;
68945;Laerm;55984;48.790;8.990;2023-05-07T15:45:42;48.48;44.01;55.23;;
68945;Laerm;55984;48.790;8.990;2023-05-07T15:48:09;48.49;44.21;61.96;;
68945;Laerm;55984;48.790;8.990;2023-05-07T15:50:36;48.55;42.68;67.52;;
68945;Laerm;55984;48.790;8.990;2023-05-07T15:53:02;44.31;41.54;55.56;;
68945;Laerm;55984;48.790;8.990;2023-05-07T15:55:30;47.72;40.71;70.38;;
68945;Laerm;55984;48.790;8.990;2023-05-07T15:57:56;53.20;39.82;73.09;;
68945;Laerm;55984;48.790;8.990;2023-05-07T16:00:25;44.14;39.83;56.70;;
68945;Laerm;55984;48.790;8.990;2023-05-07T16:02:52;44.94;38.75;67.58;;
68945;Laerm;55984;48.790;8.990;2023-05-07T16:05:24;43.27;38.12;55.45;;
68945;Laerm;55984;48.790;8.990;2023-05-07T16:07:50;40.69;37.36;53.13;;
68945;Laerm;55984;48.790;8.990;2023-05-07T16:10:16;44.15;37.91;55.01;;
68945;Laerm;55984;48.790;8.990;2023-05-07T16:12:42;40.95;37.38;53.98;;
68945;Laerm;55984;48.790;8.990;2023-05-07T16:15:08;48.20;37.75;65.56;;
68945;Laerm;55984;48.790;8.990;2023-05-07T16:17:34;46.77;38.47;55.39;;
68945;Laerm;55984;48.790;8.990;2023-05-07T16:20:02;44.02;37.80;60.12;;
68945;Laerm;55984;48.790;8.990;2023-05-07T16:22:30;41.20;36.78;52.02;;
68945;Laerm;55984;48.790;8.990;2023-05-07T16:24:56;42.28;37.94;52.93;;
68945;Laerm;55984;48.790;8.990;2023-05-07T16:27:22;45.71;37.98;62.24;;
68945;Laerm;55984;48.790;8.990;2023-05-07T16:29:48;45.25;38.12;63.83;;
68945;Laerm;55984;48.790;8.990;2023-05-07T16:32:14;41.61;37.17;52.39;;
68945;Laerm;55984;48.790;8.990;2023-05-07T16:34:40;41.35;36.48;53.06;;
68945;Laerm;55984;48.790;8.990;2023-05-07T16:37:06;41.56;36.21;53.19;;
68945;Laerm;55984;48.790;8.990;2023-05-07T16:39:31;40.67;36.30;52.06;;
68945;Laerm;55984;48.790;8.990;2023-05-07T16:41:57;42.53;36.32;54.67;;
68945;Laerm;55984;48.790;8.990;2023-05-07T16:44:23;40.14;36.23;55.82;;
68945;Laerm;55984;48.790;8.990;2023-05-07T16:46:49;40.38;35.51;54.41;;
68945;Laerm;55984;48.790;8.990;2023-05-07T16:49:17;41.71;34.87;61.00;;
68945;Laerm;55984;48.790;8.990;2023-05-07T16:51:43;46.37;35.65;63.66;;
68945;Laerm;55984;48.790;8.990;2023-05-07T16:54:10;48.54;35.99;66.50;;
68945;Laerm;55984;48.790;8.990;2023-05-07T16:56:37;48.54;35.98;59.39;;
68945;Laerm;55984;48.790;8.990;2023-05-07T16:59:03;42.15;36.29;56.47;;
68945;Laerm;55984;48.790;8.990;2023-05-07T17:01:31;40.03;36.80;50.64;;
68945;Laerm;55984;48.790;8.990;2023-05-07T17:03:57;42.06;35.59;59.76;;
68945;Laerm;55984;48.790;8.990;2023-05-07T17:06:23;40.90;34.78;52.37;;
68945;Laerm;55984;48.790;8.990;2023-05-07T17:08:49;51.42;35.16;66.89;;
68945;Laerm;55984;48.790;8.990;2023-05-07T17:11:16;50.83;34.66;67.38;;
68945;Laerm;55984;48.790;8.990;2023-05-07T17:13:42;39.93;34.84;55.98;;
68945;Laerm;55984;48.790;8.990;2023-05-07T17:16:08;45.05;34.23;56.20;;
68945;Laerm;55984;48.790;8.990;2023-05-07T17:18:34;45.23;34.07;60.11;;
68945;Laerm;55984;48.790;8.990;2023-05-07T17:21:00;42.62;34.35;60.05;;
68945;Laerm;55984;48.790;8.990;2023-05-07T17:23:26;42.71;34.40;56.64;;
68945;Laerm;55984;48.790;8.990;2023-05-07T17:25:51;45.46;35.39;58.73;;
68945;Laerm;55984;48.790;8.990;2023-05-07T17:28:17;40.66;35.66;60.04;;
68945;Laerm;55984;48.790;8.990;2023-05-07T17:30:43;45.43;36.07;65.51;;
68945;Laerm;55984;48.790;8.990;2023-05-07T17:33:10;49.48;35.64;62.70;;
68945;Laerm;55984;48.790;8.990;2023-05-07T17:35:36;46.16;36.99;61.38;;
68945;Laerm;55984;48.790;8.990;2023-05-07T17:38:02;44.44;36.52;64.45;;
68945;Laerm;55984;48.790;8.990;2023-05-07T17:40:31;43.69;36.77;61.35;;
68945;Laerm;55984;48.790;8.990;2023-05-07T17:42:58;44.95;37.30;58.08;;
68945;Laerm;55984;48.790;8.990;2023-05-07T17:45:24;44.22;37.98;56.88;;
68945;Laerm;55984;48.790;8.990;2023-05-07T17:47:50;44.89;37.95;62.28;;
68945;Laerm;55984;48.790;8.990;2023-05-07T17:50:16;42.47;37.43;55.70;;
68945;Laerm;55984;48.790;8.990;2023-05-07T17:52:42;41.67;36.56;52.80;;
68945;Laerm;55984;48.790;8.990;2023-05-07T17:55:08;41.17;37.13;51.07;;
68945;Laerm;55984;48.790;8.990;2023-05-07T17:57:34;41.26;37.38;55.44;;
68945;Laerm;55984;48.790;8.990;2023-05-07T18:00:02;44.32;39.09;62.67;;
68945;Laerm;55984;48.790;8.990;2023-05-07T18:02:29;46.34;38.88;65.86;;